Time;durP1;ratioP1;P1;durP2;ratioP2;P2;SDS_P1;SDS_P2;PMS_P1;PMS_P2;Temp;Humidity;BMP_temperature;BMP_pressure;BME280_temperature;BME280_humidity;BME280_pressure;Samples;Min_cycle;Max_cycle;Signal;HPM_P1;HPM_P2
2021/11/14 00:00:58;;;;;;;12.38;8.40;;;;;;;;;;5046515;28;20047;-63
2021/11/14 00:03:44;;;;;;;16.02;8.90;;;;;;;;;;5046640;28;20035;-62
2021/11/14 00:06:29;;;;;;;19.33;11.75;;;;;;;;;;5051477;28;20024;-63
2021/11/14 00:09:15;;;;;;;16.42;11.77;;;;;;;;;;5066117;28;20121;-62
2021/11/14 00:12:00;;;;;;;17.88;11.95;;;;;;;;;;5034083;28;20798;-63
2021/11/14 00:14:46;;;;;;;15.18;11.25;;;;;;;;;;5049413;28;20123;-60
2021/11/14 00:17:32;;;;;;;17.50;11.73;;;;;;;;;;5044088;28;20032;-62
2021/11/14 00:20:18;;;;;;;19.15;11.98;;;;;;;;;;5050688;28;20029;-61
2021/11/14 00:23:04;;;;;;;15.82;10.98;;;;;;;;;;5065554;28;20024;-60
2021/11/14 00:25:49;;;;;;;14.75;9.68;;;;;;;;;;5042099;28;20353;-64
2021/11/14 00:28:35;;;;;;;23.20;13.38;;;;;;;;;;5048632;28;20085;-63
2021/11/14 00:31:21;;;;;;;19.05;12.52;;;;;;;;;;5047223;28;20056;-65
2021/11/14 00:34:07;;;;;;;17.33;10.70;;;;;;;;;;5050128;28;20020;-63
2021/11/14 00:36:53;;;;;;;17.92;12.65;;;;;;;;;;5044418;28;20025;-64
2021/11/14 00:39:39;;;;;;;11.57;8.57;;;;;;;;;;5049072;28;20096;-65
2021/11/14 00:42:24;;;;;;;17.40;11.60;;;;;;;;;;5049742;28;20516;-66
2021/11/14 00:45:09;;;;;;;16.05;10.95;;;;;;;;;;5044183;28;20021;-62
2021/11/14 00:47:55;;;;;;;14.00;8.82;;;;;;;;;;5045029;28;20085;-61
2021/11/14 00:50:43;;;;;;;14.82;10.93;;;;;;;;;;5048090;28;20942;-62
2021/11/14 00:53:29;;;;;;;12.02;8.77;;;;;;;;;;5033402;28;20024;-62
2021/11/14 00:56:14;;;;;;;18.73;12.93;;;;;;;;;;5039409;28;20021;-61
2021/11/14 00:58:59;;;;;;;16.27;11.18;;;;;;;;;;5032351;28;20488;-62
2021/11/14 01:01:44;;;;;;;16.63;11.00;;;;;;;;;;5037159;28;20085;-68
2021/11/14 01:04:30;;;;;;;19.30;12.95;;;;;;;;;;5054524;28;20025;-70
2021/11/14 01:07:15;;;;;;;17.77;12.80;;;;;;;;;;5055875;28;20064;-68
2021/11/14 01:10:01;;;;;;;20.83;12.77;;;;;;;;;;5055381;28;20410;-69
2021/11/14 01:12:46;;;;;;;21.60;13.10;;;;;;;;;;5055622;28;20128;-67
2021/11/14 01:15:32;;;;;;;17.65;12.18;;;;;;;;;;5060673;28;20033;-67
2021/11/14 01:18:18;;;;;;;20.25;13.20;;;;;;;;;;5054678;28;20024;-67
2021/11/14 01:21:05;;;;;;;14.52;9.70;;;;;;;;;;5066662;28;20048;-64
2021/11/14 01:23:55;;;;;;;14.20;9.68;;;;;;;;;;5049184;28;20152;-68
2021/11/14 01:26:40;;;;;;;13.05;9.65;;;;;;;;;;5052998;28;20078;-65
2021/11/14 01:29:25;;;;;;;16.08;11.05;;;;;;;;;;5035334;28;20490;-64
2021/11/14 01:32:10;;;;;;;23.60;13.77;;;;;;;;;;5068117;28;20034;-66
2021/11/14 01:34:56;;;;;;;19.13;12.60;;;;;;;;;;5047405;28;20040;-64
2021/11/14 01:37:42;;;;;;;21.05;13.95;;;;;;;;;;5067148;28;20063;-65
2021/11/14 01:40:29;;;;;;;17.58;12.32;;;;;;;;;;5055880;28;20032;-61
2021/11/14 01:43:17;;;;;;;22.88;15.57;;;;;;;;;;5042669;28;20039;-61
2021/11/14 01:46:02;;;;;;;21.88;15.48;;;;;;;;;;5055721;28;20383;-63
2021/11/14 01:48:48;;;;;;;22.10;14.63;;;;;;;;;;5066649;28;20043;-61
2021/11/14 01:51:33;;;;;;;28.55;19.27;;;;;;;;;;5068628;28;20035;-62
2021/11/14 01:54:19;;;;;;;31.90;20.08;;;;;;;;;;5052061;28;20033;-62
2021/11/14 01:57:04;;;;;;;30.30;20.15;;;;;;;;;;5051151;28;20545;-66
2021/11/14 01:59:50;;;;;;;30.40;18.83;;;;;;;;;;5061334;28;20032;-66
2021/11/14 02:02:36;;;;;;;27.63;18.73;;;;;;;;;;5031343;28;20499;-63
2021/11/14 02:05:23;;;;;;;28.83;20.67;;;;;;;;;;5053183;28;20036;-65
2021/11/14 02:08:09;;;;;;;23.45;16.30;;;;;;;;;;5051122;28;20033;-65
2021/11/14 02:10:54;;;;;;;30.45;21.35;;;;;;;;;;5055671;28;20052;-63
2021/11/14 02:13:39;;;;;;;26.13;18.15;;;;;;;;;;5050920;28;20040;-65
2021/11/14 02:16:26;;;;;;;23.67;18.55;;;;;;;;;;5053702;28;20056;-66
2021/11/14 02:19:12;;;;;;;31.77;22.02;;;;;;;;;;5036152;28;20042;-64
2021/11/14 02:21:57;;;;;;;28.15;21.40;;;;;;;;;;5034801;28;20552;-68
2021/11/14 02:24:44;;;;;;;24.85;19.13;;;;;;;;;;5054340;28;20424;-65
2021/11/14 02:27:30;;;;;;;34.72;23.15;;;;;;;;;;5050849;28;20043;-67
2021/11/14 02:30:16;;;;;;;38.47;25.92;;;;;;;;;;5037820;28;20040;-65
2021/11/14 02:33:01;;;;;;;37.00;25.88;;;;;;;;;;5046717;28;20495;-65
2021/11/14 02:35:49;;;;;;;23.58;18.75;;;;;;;;;;5044075;28;20021;-62
2021/11/14 02:38:34;;;;;;;38.88;26.17;;;;;;;;;;5048729;28;20055;-60
2021/11/14 02:41:22;;;;;;;33.10;24.00;;;;;;;;;;5055973;28;20040;-61
2021/11/14 02:44:08;;;;;;;32.30;23.23;;;;;;;;;;5049765;28;20056;-61
2021/11/14 02:46:53;;;;;;;37.17;25.40;;;;;;;;;;5054433;28;20454;-62
2021/11/14 02:49:38;;;;;;;35.90;25.85;;;;;;;;;;5054209;28;20036;-61
2021/11/14 02:52:24;;;;;;;29.00;20.95;;;;;;;;;;5054645;28;20418;-69
2021/11/14 02:55:10;;;;;;;37.90;27.20;;;;;;;;;;5047116;28;20032;-70
2021/11/14 02:57:56;;;;;;;44.15;26.40;;;;;;;;;;5053069;28;20024;-68
2021/11/14 03:00:47;;;;;;;33.50;23.67;;;;;;;;;;5037478;28;20072;-70
2021/11/14 03:03:32;;;;;;;36.60;27.00;;;;;;;;;;5054189;28;20040;-70
2021/11/14 03:06:17;;;;;;;32.10;22.50;;;;;;;;;;5056725;28;20414;-68
2021/11/14 03:09:03;;;;;;;26.73;20.45;;;;;;;;;;5049242;28;20557;-70
2021/11/14 03:11:49;;;;;;;30.85;21.23;;;;;;;;;;5046248;28;20034;-75
2021/11/14 03:14:35;;;;;;;28.33;21.90;;;;;;;;;;5048875;28;20040;-72
2021/11/14 03:17:20;;;;;;;27.92;21.38;;;;;;;;;;5045822;28;20020;-72
2021/11/14 03:20:06;;;;;;;27.40;20.70;;;;;;;;;;5045783;28;20128;-71
2021/11/14 03:22:51;;;;;;;24.77;18.80;;;;;;;;;;5030783;28;20029;-70
2021/11/14 03:25:36;;;;;;;37.30;25.88;;;;;;;;;;5031792;28;20035;-72
2021/11/14 03:28:22;;;;;;;35.33;26.30;;;;;;;;;;5054612;28;20029;-69
2021/11/14 03:31:07;;;;;;;28.85;20.52;;;;;;;;;;5049460;28;20032;-74
2021/11/14 03:33:52;;;;;;;27.42;20.17;;;;;;;;;;5054742;28;20055;-71
2021/11/14 03:36:38;;;;;;;38.50;26.75;;;;;;;;;;5053881;28;20035;-71
2021/11/14 03:39:23;;;;;;;39.42;27.20;;;;;;;;;;5045656;28;20457;-72
2021/11/14 03:42:08;;;;;;;37.58;26.73;;;;;;;;;;5039036;28;20032;-71
2021/11/14 03:44:53;;;;;;;36.35;26.48;;;;;;;;;;5041928;28;20040;-71
2021/11/14 03:47:39;;;;;;;40.13;27.55;;;;;;;;;;5053390;28;20032;-68
2021/11/14 03:50:25;;;;;;;39.55;27.70;;;;;;;;;;5068169;28;20126;-69
2021/11/14 03:53:11;;;;;;;38.13;26.80;;;;;;;;;;5047588;28;20485;-69
2021/11/14 03:55:56;;;;;;;28.90;21.88;;;;;;;;;;5044803;28;20132;-68
2021/11/14 03:58:41;;;;;;;27.38;21.27;;;;;;;;;;5047850;28;20032;-67
2021/11/14 04:01:27;;;;;;;27.23;21.73;;;;;;;;;;5061365;28;20379;-67
2021/11/14 04:04:12;;;;;;;28.23;21.48;;;;;;;;;;5042245;28;20639;-67
2021/11/14 04:06:58;;;;;;;19.98;16.77;;;;;;;;;;5040968;28;20029;-72
2021/11/14 04:09:43;;;;;;;34.67;24.73;;;;;;;;;;5055978;28;20041;-68
2021/11/14 04:12:28;;;;;;;23.02;18.10;;;;;;;;;;5051853;28;20518;-68
2021/11/14 04:15:14;;;;;;;26.42;20.92;;;;;;;;;;5039682;28;20109;-71
2021/11/14 04:17:59;;;;;;;36.53;26.30;;;;;;;;;;5060811;28;20032;-69
2021/11/14 04:20:45;;;;;;;22.50;18.02;;;;;;;;;;5065071;28;20050;-70
2021/11/14 04:23:31;;;;;;;28.85;22.45;;;;;;;;;;5052213;28;20487;-67
2021/11/14 04:26:16;;;;;;;23.02;17.75;;;;;;;;;;5054074;28;20036;-70
2021/11/14 04:29:01;;;;;;;29.38;20.15;;;;;;;;;;5053283;28;20033;-70
2021/11/14 04:31:46;;;;;;;34.85;24.50;;;;;;;;;;5048025;28;20081;-70
2021/11/14 04:34:33;;;;;;;30.73;22.73;;;;;;;;;;5054026;28;20053;-71
2021/11/14 04:37:18;;;;;;;34.70;24.33;;;;;;;;;;5055381;28;20040;-71
2021/11/14 04:40:06;;;;;;;25.90;19.48;;;;;;;;;;5054742;28;20479;-71
2021/11/14 04:42:51;;;;;;;31.83;23.35;;;;;;;;;;5052123;28;20033;-70
2021/11/14 04:45:37;;;;;;;26.40;19.40;;;;;;;;;;5049043;28;20072;-71
2021/11/14 04:48:23;;;;;;;21.17;15.68;;;;;;;;;;5057379;28;20027;-74
2021/11/14 04:51:08;;;;;;;20.77;16.73;;;;;;;;;;5049239;28;20112;-73
2021/11/14 04:53:53;;;;;;;30.45;22.58;;;;;;;;;;5049473;28;20039;-72
2021/11/14 04:56:39;;;;;;;40.30;26.63;;;;;;;;;;5047470;28;20039;-74
2021/11/14 04:59:24;;;;;;;36.65;26.48;;;;;;;;;;5053151;28;20043;-63
2021/11/14 05:02:09;;;;;;;34.30;25.00;;;;;;;;;;5051487;28;20045;-70
2021/11/14 05:04:54;;;;;;;25.92;18.50;;;;;;;;;;5051347;28;20024;-64
2021/11/14 05:07:40;;;;;;;27.48;20.70;;;;;;;;;;5056579;28;20036;-61
2021/11/14 05:10:25;;;;;;;25.73;20.42;;;;;;;;;;5055923;28;20078;-61
2021/11/14 05:13:10;;;;;;;23.48;18.92;;;;;;;;;;5057211;28;20393;-64
2021/11/14 05:15:55;;;;;;;37.67;25.63;;;;;;;;;;5055062;28;20533;-62
2021/11/14 05:18:41;;;;;;;27.35;20.67;;;;;;;;;;5063932;28;20047;-72
2021/11/14 05:21:26;;;;;;;22.58;17.25;;;;;;;;;;5054818;28;20020;-62
2021/11/14 05:24:11;;;;;;;23.52;18.58;;;;;;;;;;5051063;28;20505;-61
2021/11/14 05:26:58;;;;;;;23.23;17.92;;;;;;;;;;5036241;28;20108;-61
2021/11/14 05:29:43;;;;;;;20.77;16.10;;;;;;;;;;5054138;28;20129;-62
2021/11/14 05:32:29;;;;;;;33.55;23.63;;;;;;;;;;5056298;28;20544;-62
2021/11/14 05:35:15;;;;;;;34.75;24.05;;;;;;;;;;5048480;28;20119;-63
2021/11/14 05:38:00;;;;;;;37.78;26.85;;;;;;;;;;5046430;28;20033;-69
2021/11/14 05:40:46;;;;;;;35.80;25.63;;;;;;;;;;5055119;28;20487;-70
2021/11/14 05:43:31;;;;;;;27.92;20.67;;;;;;;;;;5069909;28;20046;-72
2021/11/14 05:46:17;;;;;;;21.70;16.40;;;;;;;;;;5050894;28;20028;-71
2021/11/14 05:49:06;;;;;;;26.27;18.77;;;;;;;;;;5067988;28;20043;-70
2021/11/14 05:51:52;;;;;;;;;;;;;;;;;;5056000;28;20112;-70
2021/11/14 05:54:37;;;;;;;31.45;21.52;;;;;;;;;;5056373;28;19919;-70
2021/11/14 05:57:22;;;;;;;35.60;24.20;;;;;;;;;;5052131;28;20032;-71
2021/11/14 06:00:11;;;;;;;31.90;22.45;;;;;;;;;;5050478;28;20151;-69
2021/11/14 06:03:10;;;;;;;33.78;24.33;;;;;;;;;;5052184;28;20426;-69
2021/11/14 06:05:56;;;;;;;30.08;21.80;;;;;;;;;;5053974;28;20039;-69
2021/11/14 06:08:41;;;;;;;27.17;20.00;;;;;;;;;;5035628;28;20082;-70
2021/11/14 06:11:26;;;;;;;26.88;21.17;;;;;;;;;;5041074;28;20024;-69
2021/11/14 06:14:12;;;;;;;32.05;22.92;;;;;;;;;;5051206;28;20033;-65
2021/11/14 06:16:57;;;;;;;32.75;23.90;;;;;;;;;;5041029;28;20426;-64
2021/11/14 06:19:42;;;;;;;26.58;18.73;;;;;;;;;;5038576;28;20044;-65
2021/11/14 06:22:27;;;;;;;25.90;20.33;;;;;;;;;;5051926;28;20493;-65
2021/11/14 06:25:13;;;;;;;32.05;23.33;;;;;;;;;;5050369;28;20395;-64
2021/11/14 06:27:58;;;;;;;24.42;17.35;;;;;;;;;;5054274;28;20062;-66
2021/11/14 06:30:44;;;;;;;26.85;19.83;;;;;;;;;;5048317;28;20033;-66
2021/11/14 06:33:29;;;;;;;31.08;21.67;;;;;;;;;;5055215;28;20024;-70
2021/11/14 06:36:15;;;;;;;34.15;24.52;;;;;;;;;;5041880;28;20475;-64
2021/11/14 06:39:00;;;;;;;35.00;24.08;;;;;;;;;;5052958;28;20029;-65
2021/11/14 06:41:46;;;;;;;27.27;19.63;;;;;;;;;;5028672;28;20021;-68
2021/11/14 06:44:31;;;;;;;24.17;18.30;;;;;;;;;;5045836;28;20127;-66
2021/11/14 06:47:16;;;;;;;29.27;20.60;;;;;;;;;;5055300;28;20526;-66
2021/11/14 06:50:02;;;;;;;29.77;22.17;;;;;;;;;;5050128;28;20028;-64
2021/11/14 06:52:48;;;;;;;25.77;17.67;;;;;;;;;;5055402;28;20543;-70
2021/11/14 06:55:33;;;;;;;35.90;24.08;;;;;;;;;;5052433;28;20040;-63
2021/11/14 06:58:18;;;;;;;33.95;23.73;;;;;;;;;;5053723;28;20040;-62
2021/11/14 07:01:07;;;;;;;35.80;23.25;;;;;;;;;;5055113;28;20040;-67
2021/11/14 07:03:52;;;;;;;36.90;25.52;;;;;;;;;;5054003;28;20106;-64
2021/11/14 07:06:37;;;;;;;26.80;20.90;;;;;;;;;;5054705;28;20032;-63
2021/11/14 07:09:23;;;;;;;26.33;19.17;;;;;;;;;;5044840;28;20502;-65
2021/11/14 07:12:08;;;;;;;28.15;20.08;;;;;;;;;;5060693;28;20036;-66
2021/11/14 07:14:54;;;;;;;26.15;19.60;;;;;;;;;;5051203;28;20419;-66
2021/11/14 07:17:39;;;;;;;37.80;24.23;;;;;;;;;;5024706;28;20051;-64
2021/11/14 07:20:24;;;;;;;26.85;19.73;;;;;;;;;;5034374;28;20060;-65
2021/11/14 07:23:10;;;;;;;24.23;19.02;;;;;;;;;;5044992;28;20075;-67
2021/11/14 07:25:55;;;;;;;27.17;21.13;;;;;;;;;;5048268;28;20040;-68
2021/11/14 07:28:40;;;;;;;37.70;23.58;;;;;;;;;;5041108;28;20454;-64
2021/11/14 07:31:25;;;;;;;34.22;22.63;;;;;;;;;;5053835;28;20360;-65
2021/11/14 07:34:11;;;;;;;32.33;21.92;;;;;;;;;;5042410;28;20123;-63
2021/11/14 07:36:56;;;;;;;37.45;25.48;;;;;;;;;;5065477;28;20030;-64
2021/11/14 07:39:41;;;;;;;27.40;20.08;;;;;;;;;;5054859;28;20431;-63
2021/11/14 07:42:26;;;;;;;28.85;21.60;;;;;;;;;;5052991;28;20037;-62
2021/11/14 07:45:13;;;;;;;37.78;24.15;;;;;;;;;;5045184;28;20035;-66
2021/11/14 07:47:58;;;;;;;36.50;24.23;;;;;;;;;;5046653;28;20037;-63
2021/11/14 07:50:44;;;;;;;36.72;24.88;;;;;;;;;;5035990;28;20033;-61
2021/11/14 07:53:31;;;;;;;45.15;27.08;;;;;;;;;;5054088;28;20068;-60
2021/11/14 07:56:17;;;;;;;32.40;23.00;;;;;;;;;;5043881;28;20029;-60
2021/11/14 07:59:02;;;;;;;38.40;25.48;;;;;;;;;;5054549;28;20028;-61
2021/11/14 08:01:47;;;;;;;35.22;23.95;;;;;;;;;;5049880;28;20028;-64
2021/11/14 08:04:33;;;;;;;39.92;26.50;;;;;;;;;;5034411;28;20360;-64
2021/11/14 08:07:18;;;;;;;35.35;24.70;;;;;;;;;;5026964;28;20033;-64
2021/11/14 08:10:04;;;;;;;34.42;24.10;;;;;;;;;;5061019;28;20380;-64
2021/11/14 08:12:50;;;;;;;34.03;23.33;;;;;;;;;;5048804;28;20068;-65
2021/11/14 08:15:36;;;;;;;34.03;25.17;;;;;;;;;;5040707;28;20025;-64
2021/11/14 08:18:22;;;;;;;38.80;24.38;;;;;;;;;;5050341;28;20033;-65
2021/11/14 08:21:08;;;;;;;30.75;22.38;;;;;;;;;;5054744;28;20472;-66
2021/11/14 08:23:53;;;;;;;27.40;21.13;;;;;;;;;;5042796;28;20157;-62
2021/11/14 08:26:38;;;;;;;33.05;23.60;;;;;;;;;;5065732;28;20045;-64
2021/11/14 08:29:24;;;;;;;28.05;21.58;;;;;;;;;;5049359;28;20124;-65
2021/11/14 08:32:09;;;;;;;29.17;21.42;;;;;;;;;;5043238;28;20064;-65
2021/11/14 08:34:54;;;;;;;31.60;23.75;;;;;;;;;;5052995;28;20036;-64
2021/11/14 08:37:39;;;;;;;32.30;23.25;;;;;;;;;;5049293;28;20036;-63
2021/11/14 08:40:25;;;;;;;25.55;20.48;;;;;;;;;;5044036;28;20063;-62
2021/11/14 08:43:10;;;;;;;29.40;20.63;;;;;;;;;;5035646;28;20157;-64
2021/11/14 08:45:56;;;;;;;27.50;20.90;;;;;;;;;;5055998;28;20373;-64
2021/11/14 08:48:41;;;;;;;24.70;20.23;;;;;;;;;;5042822;28;20033;-65
2021/11/14 08:51:26;;;;;;;31.95;23.80;;;;;;;;;;5038183;28;20032;-64
2021/11/14 08:54:12;;;;;;;27.70;20.75;;;;;;;;;;5048026;28;20037;-63
2021/11/14 08:56:57;;;;;;;32.10;24.17;;;;;;;;;;5053131;28;20029;-65
2021/11/14 08:59:42;;;;;;;32.97;23.73;;;;;;;;;;5023156;28;20043;-64
2021/11/14 09:02:28;;;;;;;33.58;22.90;;;;;;;;;;5036156;28;20035;-68
2021/11/14 09:05:13;;;;;;;27.65;20.85;;;;;;;;;;5042092;28;20116;-67
2021/11/14 09:08:00;;;;;;;24.02;17.95;;;;;;;;;;5048142;28;20455;-67
2021/11/14 09:10:45;;;;;;;25.80;19.02;;;;;;;;;;5049471;28;20029;-66
2021/11/14 09:13:31;;;;;;;26.95;20.73;;;;;;;;;;5048849;28;20027;-71
2021/11/14 09:16:16;;;;;;;25.55;19.50;;;;;;;;;;5041455;28;20028;-67
2021/11/14 09:19:02;;;;;;;24.27;19.75;;;;;;;;;;5058589;28;20036;-62
2021/11/14 09:21:48;;;;;;;23.08;17.73;;;;;;;;;;5032850;28;20029;-65
2021/11/14 09:24:33;;;;;;;25.70;18.77;;;;;;;;;;5053356;28;20036;-62
2021/11/14 09:27:18;;;;;;;26.83;20.02;;;;;;;;;;5055431;28;20059;-63
2021/11/14 09:30:05;;;;;;;25.13;18.30;;;;;;;;;;5043644;28;20597;-67
2021/11/14 09:32:51;;;;;;;23.35;18.85;;;;;;;;;;5049944;28;20488;-66
2021/11/14 09:35:36;;;;;;;21.42;16.27;;;;;;;;;;5029206;28;20025;-65
2021/11/14 09:38:21;;;;;;;22.95;19.45;;;;;;;;;;5055701;28;20033;-68
2021/11/14 09:41:07;;;;;;;21.25;16.77;;;;;;;;;;5054954;28;20044;-69
2021/11/14 09:43:52;;;;;;;22.90;18.85;;;;;;;;;;5056604;28;20048;-65
2021/11/14 09:46:39;;;;;;;25.55;19.77;;;;;;;;;;5053969;28;20039;-67
2021/11/14 09:49:26;;;;;;;26.13;19.05;;;;;;;;;;5056380;28;20509;-65
2021/11/14 09:52:11;;;;;;;26.45;19.45;;;;;;;;;;5054355;28;20094;-67
2021/11/14 09:54:58;;;;;;;25.90;19.83;;;;;;;;;;5054289;28;20111;-65
2021/11/14 09:57:43;;;;;;;24.15;17.75;;;;;;;;;;5050220;28;20108;-66
2021/11/14 10:00:30;;;;;;;24.90;17.92;;;;;;;;;;5040411;28;20044;-65
2021/11/14 10:03:15;;;;;;;26.00;18.55;;;;;;;;;;5038138;28;20115;-68
2021/11/14 10:06:00;;;;;;;23.48;18.30;;;;;;;;;;5054611;28;20471;-66
2021/11/14 10:08:47;;;;;;;26.33;19.90;;;;;;;;;;5055334;28;20161;-66
2021/11/14 10:11:35;;;;;;;22.98;16.98;;;;;;;;;;5054884;28;20152;-66
2021/11/14 10:14:22;;;;;;;24.13;19.02;;;;;;;;;;5056027;28;20136;-65
2021/11/14 10:17:27;;;;;;;24.60;19.55;;;;;;;;;;5053792;28;20063;-70
2021/11/14 10:20:22;;;;;;;21.55;17.80;;;;;;;;;;5062986;28;20036;-70
2021/11/14 10:23:10;;;;;;;25.10;19.38;;;;;;;;;;5051995;28;20028;-70
2021/11/14 10:25:58;;;;;;;26.42;18.70;;;;;;;;;;5052095;28;20059;-69
2021/11/14 10:28:47;;;;;;;28.38;21.42;;;;;;;;;;5035166;28;20025;-74
2021/11/14 10:31:33;;;;;;;25.30;19.00;;;;;;;;;;5054310;28;20033;-64
2021/11/14 10:34:18;;;;;;;28.15;18.83;;;;;;;;;;5049599;28;20029;-63
2021/11/14 10:37:03;;;;;;;26.35;17.50;;;;;;;;;;5048399;28;20036;-63
2021/11/14 10:39:53;;;;;;;24.83;19.25;;;;;;;;;;5049204;28;20033;-63
2021/11/14 10:42:42;;;;;;;23.02;17.02;;;;;;;;;;5063313;28;20389;-64
2021/11/14 10:45:28;;;;;;;28.25;19.75;;;;;;;;;;5042583;28;20032;-63
2021/11/14 10:48:18;;;;;;;24.20;19.67;;;;;;;;;;5065033;28;20040;-62
2021/11/14 10:51:07;;;;;;;27.38;19.05;;;;;;;;;;5053917;28;20036;-68
2021/11/14 10:53:52;;;;;;;26.20;19.65;;;;;;;;;;5027786;28;20468;-62
2021/11/14 10:56:38;;;;;;;24.52;17.65;;;;;;;;;;5053204;28;20306;-63
2021/11/14 10:59:24;;;;;;;29.10;19.83;;;;;;;;;;5049470;28;20032;-64
2021/11/14 11:02:12;;;;;;;25.25;18.75;;;;;;;;;;5053665;28;20433;-62
2021/11/14 11:05:07;;;;;;;28.45;18.10;;;;;;;;;;5062333;28;20399;-64
2021/11/14 11:07:58;;;;;;;25.60;18.77;;;;;;;;;;5062909;28;20044;-67
2021/11/14 11:10:57;;;;;;;29.65;19.92;;;;;;;;;;5052124;28;20430;-65
2021/11/14 11:13:44;;;;;;;29.33;20.33;;;;;;;;;;5046758;28;20079;-69
2021/11/14 11:16:30;;;;;;;28.00;18.85;;;;;;;;;;5053509;28;20123;-63
2021/11/14 11:19:22;;;;;;;25.63;18.38;;;;;;;;;;5051660;28;20024;-66
2021/11/14 11:22:08;;;;;;;25.30;17.70;;;;;;;;;;5049529;28;20052;-63
2021/11/14 11:24:54;;;;;;;29.55;19.67;;;;;;;;;;5050630;28;20770;-65
2021/11/14 11:27:39;;;;;;;29.02;19.80;;;;;;;;;;5062979;28;20336;-66
2021/11/14 11:30:26;;;;;;;30.92;21.27;;;;;;;;;;5050349;28;20574;-61
2021/11/14 11:33:11;;;;;;;28.27;18.70;;;;;;;;;;5067711;28;20035;-59
2021/11/14 11:35:57;;;;;;;29.08;20.23;;;;;;;;;;5050148;28;20522;-61
2021/11/14 11:38:45;;;;;;;27.65;19.55;;;;;;;;;;5052679;28;20064;-63
2021/11/14 11:41:31;;;;;;;27.52;18.15;;;;;;;;;;5052074;28;20036;-61
2021/11/14 11:44:17;;;;;;;26.17;18.20;;;;;;;;;;5045544;28;20029;-65
2021/11/14 11:47:05;;;;;;;28.92;19.52;;;;;;;;;;5057597;28;20443;-66
2021/11/14 11:49:51;;;;;;;26.50;18.83;;;;;;;;;;5035400;28;20127;-67
2021/11/14 11:52:43;;;;;;;25.48;17.80;;;;;;;;;;5057853;28;20036;-67
2021/11/14 11:55:34;;;;;;;24.70;18.10;;;;;;;;;;5052377;28;20081;-66
2021/11/14 11:58:20;;;;;;;22.88;17.15;;;;;;;;;;5051671;28;20378;-65
2021/11/14 12:01:05;;;;;;;24.50;17.50;;;;;;;;;;5052566;28;20052;-67
2021/11/14 12:03:52;;;;;;;26.77;17.85;;;;;;;;;;5053806;28;20104;-60
2021/11/14 12:06:41;;;;;;;26.48;18.67;;;;;;;;;;5045575;28;20064;-60
2021/11/14 12:09:36;;;;;;;23.52;17.25;;;;;;;;;;5057728;28;20039;-60
2021/11/14 12:12:21;;;;;;;25.08;18.05;;;;;;;;;;5064335;28;20487;-60
2021/11/14 12:15:15;;;;;;;30.40;19.13;;;;;;;;;;5049691;28;20032;-61
2021/11/14 12:18:06;;;;;;;23.98;17.00;;;;;;;;;;5058196;28;20036;-61
2021/11/14 12:20:52;;;;;;;26.00;18.88;;;;;;;;;;5048718;28;20047;-61
2021/11/14 12:23:47;;;;;;;22.75;16.65;;;;;;;;;;5057813;28;20037;-65
2021/11/14 12:26:34;;;;;;;24.02;18.20;;;;;;;;;;5037693;28;20041;-66
2021/11/14 12:29:43;;;;;;;26.05;17.90;;;;;;;;;;5050540;28;20043;-66
2021/11/14 12:32:41;;;;;;;26.50;17.42;;;;;;;;;;5053387;28;20052;-63
2021/11/14 12:35:31;;;;;;;25.15;17.65;;;;;;;;;;5047460;28;20062;-65
2021/11/14 12:38:22;;;;;;;24.30;17.60;;;;;;;;;;5046510;28;20028;-64
2021/11/14 12:41:08;;;;;;;24.27;16.95;;;;;;;;;;5045267;28;20037;-64
2021/11/14 12:43:54;;;;;;;23.65;17.52;;;;;;;;;;5051073;28;20519;-68
2021/11/14 12:46:40;;;;;;;23.80;17.10;;;;;;;;;;5050828;28;20044;-66
2021/11/14 12:49:34;;;;;;;25.13;17.23;;;;;;;;;;5052326;28;20144;-65
2021/11/14 12:52:24;;;;;;;23.80;15.70;;;;;;;;;;5050913;28;20025;-68
2021/11/14 12:55:23;;;;;;;27.58;17.55;;;;;;;;;;5048154;28;20325;-66
2021/11/14 12:58:10;;;;;;;24.67;16.40;;;;;;;;;;5050052;28;20198;-65
2021/11/14 13:01:02;;;;;;;23.55;15.77;;;;;;;;;;5037322;28;20462;-65
2021/11/14 13:03:48;;;;;;;23.58;16.08;;;;;;;;;;5063277;28;20454;-66
2021/11/14 13:06:36;;;;;;;22.95;16.80;;;;;;;;;;5055023;28;20688;-66
2021/11/14 13:09:22;;;;;;;22.63;14.77;;;;;;;;;;5047646;28;20446;-66
2021/11/14 13:12:08;;;;;;;25.40;18.30;;;;;;;;;;5045509;28;20043;-63
2021/11/14 13:14:59;;;;;;;26.98;17.90;;;;;;;;;;5050341;28;20043;-64
2021/11/14 13:17:45;;;;;;;26.77;17.17;;;;;;;;;;5043300;28;20032;-70
2021/11/14 13:20:32;;;;;;;29.42;18.08;;;;;;;;;;5070531;28;20074;-70
2021/11/14 13:23:18;;;;;;;27.67;18.63;;;;;;;;;;5056390;28;20071;-72
2021/11/14 13:26:07;;;;;;;27.27;18.40;;;;;;;;;;5039906;28;20033;-70
2021/11/14 13:28:53;;;;;;;27.42;18.52;;;;;;;;;;5042972;28;20120;-70
2021/11/14 13:31:38;;;;;;;28.88;19.80;;;;;;;;;;5056629;28;20035;-70
2021/11/14 13:34:25;;;;;;;27.63;20.30;;;;;;;;;;5055724;28;20444;-69
2021/11/14 13:37:21;;;;;;;29.48;20.60;;;;;;;;;;5057013;28;20032;-66
2021/11/14 13:40:07;;;;;;;28.33;19.60;;;;;;;;;;5054950;28;20040;-67
2021/11/14 13:43:02;;;;;;;31.95;20.40;;;;;;;;;;5053905;28;20047;-64
2021/11/14 13:45:49;;;;;;;27.65;19.70;;;;;;;;;;5050125;28;20051;-65
2021/11/14 13:48:35;;;;;;;31.60;20.50;;;;;;;;;;5051377;28;20391;-64
2021/11/14 13:51:20;;;;;;;27.50;19.40;;;;;;;;;;5045341;28;20036;-66
2021/11/14 13:54:07;;;;;;;28.38;20.85;;;;;;;;;;5036740;28;20041;-59
2021/11/14 13:56:52;;;;;;;29.60;21.13;;;;;;;;;;5061233;28;20444;-66
2021/11/14 13:59:38;;;;;;;31.95;18.75;;;;;;;;;;5046279;28;20037;-66
2021/11/14 14:02:24;;;;;;;31.63;18.88;;;;;;;;;;5033572;28;20576;-65
2021/11/14 14:05:10;;;;;;;28.75;19.40;;;;;;;;;;5054451;28;20048;-64
2021/11/14 14:07:57;;;;;;;27.63;19.65;;;;;;;;;;5055226;28;20021;-65
2021/11/14 14:10:48;;;;;;;25.63;19.50;;;;;;;;;;5034977;28;20017;-67
2021/11/14 14:13:34;;;;;;;27.73;18.30;;;;;;;;;;5050347;28;20040;-60
2021/11/14 14:16:20;;;;;;;26.02;18.98;;;;;;;;;;5047277;28;20552;-64
2021/11/14 14:19:05;;;;;;;27.27;19.02;;;;;;;;;;5038545;28;20098;-62
2021/11/14 14:22:00;;;;;;;24.52;18.38;;;;;;;;;;5042264;28;20036;-63
2021/11/14 14:24:47;;;;;;;27.60;18.83;;;;;;;;;;5044584;28;20029;-61
2021/11/14 14:27:32;;;;;;;24.48;17.05;;;;;;;;;;5055078;28;20146;-64
2021/11/14 14:30:20;;;;;;;26.55;20.08;;;;;;;;;;5053628;28;20446;-63
2021/11/14 14:33:12;;;;;;;24.90;16.33;;;;;;;;;;5050019;28;20029;-67
2021/11/14 14:35:59;;;;;;;25.60;18.23;;;;;;;;;;5049398;28;20036;-67
2021/11/14 14:38:45;;;;;;;26.83;18.08;;;;;;;;;;5053313;28;20037;-67
2021/11/14 14:41:30;;;;;;;22.83;16.55;;;;;;;;;;5045862;28;20048;-66
2021/11/14 14:44:15;;;;;;;24.60;16.05;;;;;;;;;;5060938;28;20033;-64
2021/11/14 14:47:00;;;;;;;22.80;16.23;;;;;;;;;;5055077;28;20498;-67
2021/11/14 14:49:46;;;;;;;22.67;16.23;;;;;;;;;;5048919;28;20033;-63
2021/11/14 14:52:31;;;;;;;24.65;17.95;;;;;;;;;;5050531;28;20021;-63
2021/11/14 14:55:16;;;;;;;23.33;15.52;;;;;;;;;;5037707;28;20025;-64
2021/11/14 14:58:09;;;;;;;22.38;16.05;;;;;;;;;;5047787;28;20128;-65
2021/11/14 15:00:54;;;;;;;21.17;15.10;;;;;;;;;;5062916;28;20103;-66
2021/11/14 15:03:39;;;;;;;23.70;15.63;;;;;;;;;;5053466;28;20790;-62
2021/11/14 15:06:25;;;;;;;21.73;15.88;;;;;;;;;;5040948;28;20024;-64
2021/11/14 15:09:25;;;;;;;20.55;14.43;;;;;;;;;;5037937;28;20032;-66
2021/11/14 15:12:10;;;;;;;;;;;;;;;;;;5050870;28;20379;-63
2021/11/14 15:14:56;;;;;;;19.25;14.15;;;;;;;;;;5035607;28;20015;-62
2021/11/14 15:17:42;;;;;;;19.67;14.75;;;;;;;;;;5052919;28;20444;-64
2021/11/14 15:20:29;;;;;;;19.98;15.32;;;;;;;;;;5050219;28;20056;-66
2021/11/14 15:23:16;;;;;;;20.35;14.20;;;;;;;;;;5065429;28;20041;-63
2021/11/14 15:26:01;;;;;;;21.17;13.82;;;;;;;;;;5067690;28;20456;-68
2021/11/14 15:28:49;;;;;;;24.75;14.68;;;;;;;;;;5047393;28;20333;-63
2021/11/14 15:31:34;;;;;;;19.67;15.05;;;;;;;;;;5040706;28;20082;-64
2021/11/14 15:34:19;;;;;;;18.55;14.73;;;;;;;;;;5042307;28;20021;-64
2021/11/14 15:37:05;;;;;;;22.17;15.93;;;;;;;;;;5053639;28;20054;-63
2021/11/14 15:39:50;;;;;;;21.08;15.45;;;;;;;;;;5048375;28;20032;-66
2021/11/14 15:42:35;;;;;;;24.75;16.13;;;;;;;;;;5065114;28;20028;-67
2021/11/14 15:45:21;;;;;;;19.65;14.15;;;;;;;;;;5058517;28;20387;-65
2021/11/14 15:48:08;;;;;;;21.80;14.25;;;;;;;;;;5042563;28;20072;-66
2021/11/14 15:50:53;;;;;;;21.70;14.27;;;;;;;;;;5055773;28;20569;-63
2021/11/14 15:53:38;;;;;;;22.40;14.35;;;;;;;;;;5052167;28;20040;-64
2021/11/14 15:56:24;;;;;;;20.15;13.98;;;;;;;;;;5053392;28;20032;-64
2021/11/14 15:59:09;;;;;;;19.95;13.52;;;;;;;;;;5046309;28;20035;-67
2021/11/14 16:01:54;;;;;;;19.23;13.93;;;;;;;;;;5036120;28;20031;-62
2021/11/14 16:04:39;;;;;;;20.88;14.48;;;;;;;;;;5052511;28;20495;-67
2021/11/14 16:07:24;;;;;;;20.67;12.98;;;;;;;;;;5051776;28;20028;-64
2021/11/14 16:10:10;;;;;;;20.83;13.63;;;;;;;;;;5052726;28;20055;-68